Latest Weather Observations for Point Fawcett

IDD60901

Issued at 5:41 pm CST Sunday 26 June 2016 (issued every 10 minutes, with the page automatically refreshed every 10 minutes)

About weather observations | Map of Darwin area stations | Latest observations for Darwin area | Other Formats
Station Details ID: 200731 Name: POINT FAWCETT Lat: -11.76 Lon: 130.03 Height: 6.5 m
Data from the previous 72 hours. | See also: Recent months at Point Fawcett
Date/Time
CST
Temp
°C
App
Temp
°C
Dew
Point
°C
Rel
Hum
%
Delta-T
°C
Wind Press
QNH
hPa
Press
MSL
hPa
Rain since
9am
mm
Dir  Spd
km/h
Gust
km/h
Spd
kts
Gust
kts
26/05:30pm 30.1 33.1 21.2 59 6.0 E 7 13 4 7 1010.2 - 0.0
26/05:00pm 29.9 32.8 21.0 59 5.9 ESE 7 11 4 6 1010.0 - 0.0
26/04:30pm 29.9 31.8 20.5 57 6.2 E 11 22 6 12 1009.9 - 0.0
26/04:00pm 31.5 32.4 20.1 50 7.5 E 15 26 8 14 1009.8 - 0.0
26/03:30pm 31.8 33.6 21.9 55 6.7 ESE 15 20 8 11 1009.9 - 0.0
26/03:00pm 30.6 33.0 22.2 61 5.7 ESE 13 24 7 13 1010.1 1010.1 0.0
26/02:30pm 30.0 31.8 21.9 62 5.5 ESE 15 26 8 14 1010.4 - 0.0
26/02:00pm 30.1 32.8 22.8 65 5.0 ESE 13 24 7 13 1010.7 - 0.0
26/01:30pm 29.8 31.8 22.3 64 5.1 ESE 15 24 8 13 1011.0 - 0.0
26/01:00pm 30.0 31.8 21.9 62 5.5 ESE 15 24 8 13 1011.5 - 0.0
26/12:30pm 29.4 31.0 22.9 68 4.4 SE 19 32 10 17 1012.2 - 0.0
26/12:00pm 28.9 31.8 23.8 74 3.5 SE 15 26 8 14 1012.5 1012.5 0.0
26/11:30am 28.6 32.2 24.4 78 2.9 SE 13 20 7 11 1012.8 - 0.0
26/11:00am 29.2 33.5 24.3 75 3.4 SE 9 15 5 8 1013.1 - 0.0
26/10:30am 30.3 34.1 24.7 72 3.9 E 13 24 7 13 1013.4 - 0.0
26/10:00am 27.8 31.6 24.0 80 2.6 E 11 20 6 11 1013.5 - 0.0
26/09:30am 27.5 32.4 25.3 88 1.5 ENE 9 13 5 7 1013.4 - 0.0
26/09:00am 26.3 32.1 26.0 98 0.2 E 7 11 4 6 1013.2 1013.2 0.0
26/08:30am 25.6 31.3 25.6 100 0.0 E 6 7 3 4 1013.0 - 0.0
26/08:00am 23.7 28.2 23.7 100 0.0 E 6 7 3 4 1012.7 - 0.0
26/07:30am 22.6 26.2 22.4 99 0.1 E 7 9 4 5 1012.4 - 0.0
26/07:00am 22.4 25.9 22.2 99 0.1 ESE 7 7 4 4 1012.1 - 0.0
26/06:30am 22.2 25.6 22.0 99 0.1 SE 7 9 4 5 1011.8 - 0.0
26/06:00am 22.1 25.4 21.9 99 0.1 SE 7 7 4 4 1011.6 1011.6 0.0
26/05:30am 22.1 25.4 21.9 99 0.1 SE 7 7 4 4 1011.3 - 0.0
26/05:00am 22.3 25.7 22.0 98 0.2 SE 7 9 4 5 1011.1 - 0.0
26/04:30am 22.4 25.7 21.9 97 0.3 SE 7 9 4 5 1010.9 - 0.0
26/04:00am 22.7 26.1 22.0 96 0.5 SSE 7 9 4 5 1010.8 - 0.0
26/03:30am 22.8 26.1 21.8 94 0.7 SE 7 7 4 4 1010.9 - 0.0
26/03:00am 23.7 27.4 22.5 93 0.8 E 7 9 4 5 1011.0 1011.0 0.0
26/02:30am 24.5 28.8 23.6 95 0.6 E 7 9 4 5 1011.1 - 0.0
26/02:00am 25.1 30.2 24.9 99 0.1 ENE 7 11 4 6 1011.1 - 0.0
26/01:30am 25.0 29.6 24.8 99 0.1 ENE 9 11 5 6 1011.4 - 0.0
26/01:00am 22.9 26.0 22.2 96 0.5 ENE 9 11 5 6 1011.5 - 0.0
26/12:30am 22.5 25.4 21.7 95 0.5 ENE 9 11 5 6 1011.6 - 0.0
26/12:00am 22.4 25.4 21.2 93 0.8 ENE 7 9 4 5 1011.7 1011.7 0.0
 
Date/Time
CST
Temp
°C
App
Temp
°C
Dew
Point
°C
Rel
Hum
%
Delta-T
°C
Wind Press
QNH
hPa
Press
MSL
hPa
Rain since
9am
mm
Dir  Spd
km/h
Gust
km/h
Spd
kts
Gust
kts
25/11:30pm 22.5 25.4 21.1 92 0.9 ENE 7 9 4 5 1011.6 - 0.0
25/11:00pm 22.6 25.4 20.9 90 1.1 ENE 7 9 4 5 1011.9 - 0.0
25/10:30pm 23.0 25.7 20.7 87 1.5 ENE 7 9 4 5 1012.0 - 0.0
25/10:00pm 23.7 26.6 21.0 85 1.8 E 7 9 4 5 1011.9 - 0.0
25/09:30pm 24.5 27.5 22.0 86 1.7 E 9 11 5 6 1011.7 - 0.0
25/09:00pm 25.1 28.3 22.4 85 1.8 E 9 11 5 6 1011.7 1011.7 0.0
25/08:30pm 25.6 28.8 22.3 82 2.2 ESE 9 13 5 7 1011.7 - 0.0
25/08:00pm 25.7 28.7 22.0 80 2.5 ESE 9 13 5 7 1011.4 - 0.0
25/07:30pm 26.4 29.7 21.8 76 3.1 ESE 7 11 4 6 1011.1 - 0.0
25/07:00pm 27.4 30.4 21.9 72 3.7 ESE 9 13 5 7 1010.9 - 0.0
25/06:30pm 28.2 31.6 22.0 69 4.2 ESE 7 13 4 7 1010.6 - 0.0
25/06:00pm 29.2 32.5 21.9 64 4.9 ESE 7 11 4 6 1010.3 1010.3 0.0
25/05:30pm 30.2 33.0 21.6 60 5.8 ESE 9 15 5 8 1010.0 - 0.0
25/05:00pm 31.6 34.2 22.0 56 6.5 ESE 11 17 6 9 1009.8 - 0.0
25/04:30pm 31.9 34.2 22.0 55 6.7 ESE 13 20 7 11 1009.6 - 0.0
25/04:00pm 32.6 35.4 23.0 57 6.6 ESE 13 22 7 12 1009.6 - 0.0
25/03:30pm 31.7 33.8 22.4 58 6.3 ESE 15 24 8 13 1009.7 - 0.0
25/03:00pm 30.7 32.6 22.0 59 5.9 ESE 15 26 8 14 1010.0 1010.0 0.0
25/02:30pm 32.4 34.3 22.8 57 6.6 ESE 17 30 9 16 1010.1 - 0.0
25/02:00pm 32.3 34.6 23.5 59 6.1 ESE 17 26 9 14 1010.4 - 0.0
25/01:30pm 32.4 34.3 22.8 57 6.6 ESE 17 30 9 16 1010.9 - 0.0
25/01:00pm 32.4 34.9 23.1 58 6.4 ESE 15 30 8 16 1011.3 - 0.0
25/12:30pm 31.9 34.2 23.4 60 5.9 E 17 30 9 16 1011.8 - 0.0
25/12:00pm 32.0 34.4 23.0 59 6.2 E 15 26 8 14 1012.2 1012.2 0.0
25/11:30am 32.1 34.9 23.6 60 5.9 E 15 20 8 11 1012.5 - 0.0
25/11:00am 30.9 34.7 24.1 67 4.7 E 11 22 6 12 1012.5 - 0.0
25/10:30am 30.6 33.9 23.8 67 4.7 ENE 13 20 7 11 1012.6 - 0.0
25/10:00am 30.2 33.1 23.9 69 4.4 E 15 20 8 11 1012.7 - 0.0
25/09:30am 29.7 34.2 24.6 74 3.6 E 9 15 5 8 1012.5 - 0.0
25/09:00am 28.4 33.5 25.0 82 2.4 E 7 11 4 6 1012.5 1012.5 0.0
25/08:30am 25.7 32.6 25.7 100 0.0 CALM 0 6 0 3 1012.1 - 0.0
25/08:00am 23.8 28.3 23.6 99 0.1 ESE 6 7 3 4 1012.2 - 0.0
25/07:30am 23.0 26.8 22.8 99 0.1 SE 7 9 4 5 1011.9 - 0.0
25/07:00am 22.8 26.7 22.6 99 0.1 ESE 6 7 3 4 1011.5 - 0.0
25/06:30am 22.6 26.2 22.4 99 0.1 E 7 9 4 5 1011.5 - 0.0
25/06:00am 22.1 25.4 21.9 99 0.1 ESE 7 9 4 5 1011.2 1011.2 0.0
25/05:30am 21.8 25.0 21.6 99 0.1 ESE 7 9 4 5 1011.1 - 0.0
25/05:00am 21.2 24.0 20.9 98 0.2 ESE 7 9 4 5 1010.9 - 0.0
25/04:30am 21.1 24.1 20.8 98 0.2 ESE 6 9 3 5 1010.7 - 0.0
25/04:00am 21.4 24.3 21.1 98 0.2 SE 7 7 4 4 1010.7 - 0.0
25/03:30am 21.2 24.0 20.9 98 0.2 SE 7 9 4 5 1010.9 - 0.0
25/03:00am 20.9 23.5 20.4 97 0.3 ESE 7 9 4 5 1011.1 1011.1 0.0
25/02:30am 21.0 23.2 20.5 97 0.3 E 9 9 5 5 1011.3 - 0.0
25/02:00am 21.0 23.2 20.3 96 0.4 E 9 11 5 6 1011.5 - 0.0
25/01:30am 20.8 23.2 20.0 95 0.5 ESE 7 9 4 5 1011.6 - 0.0
25/01:00am 21.1 23.5 20.1 94 0.6 ESE 7 7 4 4 1011.4 - 0.0
25/12:30am 21.2 23.6 20.0 93 0.8 E 7 7 4 4 1011.3 - 0.0
25/12:00am 21.3 23.6 19.8 91 1.0 ENE 7 7 4 4 1011.2 1011.2 0.0
 
Date/Time
CST
Temp
°C
App
Temp
°C
Dew
Point
°C
Rel
Hum
%
Delta-T
°C
Wind Press
QNH
hPa
Press
MSL
hPa
Rain since
9am
mm
Dir  Spd
km/h
Gust
km/h
Spd
kts
Gust
kts
24/11:30pm 21.4 24.9 19.5 89 1.2 CALM 0 0 0 0 1011.0 - 0.0
24/11:00pm 21.8 25.4 19.7 88 1.3 CALM 0 0 0 0 1011.0 - 0.0
24/10:30pm 22.3 25.5 19.7 85 1.7 N 2 6 1 3 1011.1 - 0.0
24/10:00pm 23.3 26.0 19.5 79 2.4 NW 4 7 2 4 1011.0 - 0.0
24/09:30pm 26.0 28.7 20.6 72 3.5 N 7 11 4 6 1010.7 - 0.0
24/09:00pm 27.1 29.9 22.3 75 3.2 N 11 13 6 7 1010.5 1010.5 0.0
24/08:30pm 25.1 28.2 22.2 84 1.9 NNE 9 15 5 8 1010.4 - 0.0
24/08:00pm 23.3 25.1 18.8 76 2.8 E 7 9 4 5 1010.4 - 0.0
24/07:30pm 24.4 26.2 18.8 71 3.6 ESE 7 9 4 5 1010.2 - 0.0
24/07:00pm 26.7 28.5 19.6 65 4.6 ENE 9 11 5 6 1009.9 - 0.0
24/06:30pm 28.2 30.3 19.4 59 5.7 SE 7 13 4 7 1009.7 - 0.0
24/06:00pm 30.0 32.4 20.0 55 6.6 SE 7 13 4 7 1009.4 1009.4 0.0
24/05:30pm 30.8 32.5 20.1 53 7.1 SE 11 17 6 9 1009.2 - 0.0
24/05:00pm 31.6 33.2 19.2 47 8.1 ESE 9 17 5 9 1009.3 - 0.0
24/04:30pm 32.2 32.7 18.4 44 8.9 SE 13 22 7 12 1009.0 - 0.0
24/04:00pm 32.8 33.1 17.0 38 10.0 ESE 11 19 6 10 1009.0 - 0.0
24/03:30pm 33.7 33.3 16.1 34 11.1 E 13 20 7 11 1009.1 - 0.0
24/03:00pm 33.9 32.4 15.4 33 11.6 ESE 17 28 9 15 1009.3 1009.3 0.0
24/02:30pm 33.8 32.3 15.3 33 11.5 ESE 17 30 9 16 1009.5 - 0.0
24/02:00pm 33.3 32.9 15.3 34 11.2 ESE 11 26 6 14 1010.0 - 0.0
24/01:30pm 33.2 33.5 17.0 38 10.3 SE 11 17 6 9 1010.3 - 0.0
24/01:00pm 32.2 33.0 17.3 41 9.5 SE 9 15 5 8 1011.1 - 0.0
24/12:30pm 31.4 32.0 17.7 44 8.8 SE 11 20 6 11 1011.5 - 0.0
24/12:00pm 30.9 32.1 18.3 47 8.1 SSE 9 15 5 8 1012.0 1012.0 0.0
24/11:30am 30.5 32.5 19.2 51 7.4 SSE 7 13 4 7 1012.5 - 0.0
24/11:00am 30.3 31.7 19.6 52 7.0 S 11 17 6 9 1012.7 - 0.0
24/10:30am 29.8 32.2 20.9 59 5.9 S 9 17 5 9 1012.5 - 0.0
24/10:00am 28.8 32.7 23.0 71 4.0 S 7 11 4 6 1012.5 - 0.0
24/09:30am 26.3 31.6 24.9 92 1.0 SSE 6 9 3 5 1012.4 - 0.0
24/09:00am 24.3 29.2 24.3 100 0.0 SE 6 7 3 4 1012.2 1012.2 0.0
24/08:30am 22.2 25.9 22.2 100 0.0 SE 6 7 3 4 1011.8 - 0.0
24/08:00am 20.8 23.6 20.8 100 0.0 SSE 7 9 4 5 1011.3 - 0.0
24/07:30am 18.7 20.4 18.5 99 0.1 SSE 7 9 4 5 1011.1 - 0.0
24/07:00am 18.5 20.1 18.3 99 0.1 SSE 7 9 4 5 1011.0 - 0.0
24/06:30am 18.8 20.5 18.6 99 0.1 SSE 7 9 4 5 1010.7 - 0.0
24/06:00am 19.1 21.0 18.9 99 0.1 SE 7 7 4 4 1010.7 1010.7 0.0
24/05:30am 19.1 21.0 18.9 99 0.1 SE 7 9 4 5 1010.5 - 0.0
24/05:00am 19.0 20.8 18.8 99 0.1 SE 7 7 4 4 1010.5 - 0.0
24/04:30am 19.3 21.5 19.1 99 0.1 SE 6 7 3 4 1010.3 - 0.0
24/04:00am 19.5 21.6 19.3 99 0.1 SSE 7 7 4 4 1010.1 - 0.0
24/03:30am 19.5 21.6 19.3 99 0.1 SE 7 7 4 4 1010.2 - 0.0
24/03:00am 19.6 21.7 19.4 99 0.1 SE 7 9 4 5 1010.3 1010.3 0.0
24/02:30am 19.7 21.9 19.5 99 0.1 SE 7 9 4 5 1010.6 - 0.0
24/02:00am 19.7 21.5 19.5 99 0.1 SSE 9 11 5 6 1010.8 - 0.0
24/01:30am 19.5 21.5 19.2 98 0.2 SSE 7 9 4 5 1011.1 - 0.0
24/01:00am 19.4 21.5 18.9 97 0.3 ESE 6 7 3 4 1011.3 - 0.0
24/12:30am 19.3 21.0 18.6 96 0.4 ESE 7 7 4 4 1011.4 - 0.0
24/12:00am 19.4 21.1 18.6 95 0.5 SE 7 9 4 5 1011.6 1011.6 0.0
 
Date/Time
CST
Temp
°C
App
Temp
°C
Dew
Point
°C
Rel
Hum
%
Delta-T
°C
Wind Press
QNH
hPa
Press
MSL
hPa
Rain since
9am
mm
Dir  Spd
km/h
Gust
km/h
Spd
kts
Gust
kts
23/11:30pm 19.8 21.6 18.8 94 0.6 E 7 7 4 4 1011.6 - 0.0
23/11:00pm 20.5 22.3 19.5 94 0.6 E 9 11 5 6 1011.7 - 0.0
23/10:30pm 20.3 22.4 19.3 94 0.6 E 7 11 4 6 1011.7 - 0.0
23/10:00pm 20.4 22.5 19.4 94 0.6 SE 7 9 4 5 1011.5 - 0.0
23/09:30pm 20.4 22.4 19.2 93 0.8 ESE 7 9 4 5 1011.3 - 0.0
23/09:00pm 20.6 22.7 19.3 92 0.8 SE 7 9 4 5 1011.0 1011.0 0.0
23/08:30pm 20.8 22.8 19.1 90 1.1 ESE 7 9 4 5 1010.5 - 0.0
23/08:00pm 21.2 23.3 19.3 89 1.2 ESE 7 9 4 5 1010.1 - 0.0
23/07:30pm 21.9 25.3 19.3 85 1.7 CALM 0 0 0 0 1009.9 - 0.0
23/07:00pm 23.1 26.5 19.3 79 2.4 CALM 0 0 0 0 1009.7 - 0.0
23/06:30pm 25.4 29.1 20.0 72 3.5 CALM 0 0 0 0 1009.4 - 0.0
23/06:00pm 27.7 31.7 20.5 65 4.7 CALM 0 0 0 0 1009.3 1009.3 0.0

Latest Capital City Observations: Canberra | Sydney | Melbourne | Brisbane | Adelaide | Perth | Hobart | Darwin

Other Formats:

Comma delimited format used in spreadsheet applications
http://www.bom.gov.au/fwo/IDD60901/IDD60901.94122.axf

JavaScript Object Notation format (JSON) in row-major order
http://www.bom.gov.au/fwo/IDD60901/IDD60901.94122.json